createdAt,value
2019-02-11T00:00:04.593Z,985.71
2019-02-11T00:01:04.586Z,985.71
2019-02-11T00:02:04.574Z,985.80
2019-02-11T00:03:04.564Z,985.82
2019-02-11T00:04:04.557Z,985.83
2019-02-11T00:05:04.545Z,985.82
2019-02-11T00:06:04.526Z,985.77
2019-02-11T00:07:04.515Z,985.76
2019-02-11T00:08:04.504Z,985.82
2019-02-11T00:09:04.495Z,985.89
2019-02-11T00:10:04.485Z,985.79
2019-02-11T00:11:04.474Z,985.85
2019-02-11T00:12:04.472Z,985.82
2019-02-11T00:13:10.373Z,985.85
2019-02-11T00:14:05.435Z,985.92
2019-02-11T00:15:04.427Z,985.93
2019-02-11T00:16:04.414Z,985.95
2019-02-11T00:17:04.404Z,985.97
2019-02-11T00:18:04.392Z,985.95
2019-02-11T00:19:04.386Z,986.00
2019-02-11T00:20:04.434Z,986.04
2019-02-11T00:21:04.359Z,986.02
2019-02-11T00:22:04.351Z,986.09
2019-02-11T00:23:04.338Z,986.10
2019-02-11T00:24:04.324Z,986.05
2019-02-11T00:25:04.316Z,986.04
2019-02-11T00:26:04.322Z,986.13
2019-02-11T00:27:04.297Z,986.13
2019-02-11T00:28:04.285Z,986.17
2019-02-11T00:29:04.268Z,986.20
2019-02-11T00:30:04.270Z,986.24
2019-02-11T00:31:04.247Z,986.26
2019-02-11T00:32:04.245Z,986.31
2019-02-11T00:33:04.228Z,986.31
2019-02-11T00:34:04.215Z,986.34
2019-02-11T00:35:04.202Z,986.28
2019-02-11T00:36:04.193Z,986.37
2019-02-11T00:37:04.179Z,986.38
2019-02-11T00:38:04.171Z,986.33
2019-02-11T00:39:04.159Z,986.32
2019-02-11T00:40:04.148Z,986.35
2019-02-11T00:41:04.134Z,986.42
2019-02-11T00:42:04.123Z,986.45
2019-02-11T00:43:04.116Z,986.45
2019-02-11T00:44:04.102Z,986.47
2019-02-11T00:45:04.089Z,986.48
2019-02-11T00:46:04.081Z,986.52
2019-02-11T00:47:04.068Z,986.45
2019-02-11T00:48:04.058Z,986.48
2019-02-11T00:49:04.048Z,986.51
2019-02-11T00:50:04.040Z,986.50
2019-02-11T00:51:04.025Z,986.49
2019-02-11T00:52:04.012Z,986.58
2019-02-11T00:53:04.001Z,986.58
2019-02-11T00:54:03.989Z,986.63
2019-02-11T00:55:03.979Z,986.59
2019-02-11T00:56:03.972Z,986.58
2019-02-11T00:57:03.957Z,986.62
2019-02-11T00:58:03.945Z,986.63
2019-02-11T00:59:03.934Z,986.64
2019-02-11T01:00:03.923Z,986.68
2019-02-11T01:01:03.916Z,986.59
2019-02-11T01:02:03.901Z,986.69
2019-02-11T01:03:03.888Z,986.70
2019-02-11T01:04:03.877Z,986.72
2019-02-11T01:05:03.867Z,986.72
2019-02-11T01:06:03.859Z,986.79
2019-02-11T01:07:03.844Z,986.75
2019-02-11T01:08:03.832Z,986.84
2019-02-11T01:09:03.837Z,986.81
2019-02-11T01:10:03.810Z,986.82
2019-02-11T01:11:03.803Z,986.92
2019-02-11T01:12:03.812Z,986.92
2019-02-11T01:13:03.777Z,986.92
2019-02-11T01:14:03.765Z,986.94
2019-02-11T01:15:03.765Z,986.98
2019-02-11T01:16:03.745Z,986.88
2019-02-11T01:17:03.733Z,986.90
2019-02-11T01:18:03.726Z,986.98
2019-02-11T01:19:03.712Z,986.89
2019-02-11T01:20:03.700Z,986.99
2019-02-11T01:21:03.687Z,987.05
2019-02-11T01:22:03.680Z,987.05
2019-02-11T01:23:03.667Z,987.04
2019-02-11T01:24:03.659Z,987.03
2019-02-11T01:25:03.644Z,987.04
2019-02-11T01:26:03.631Z,987.12
2019-02-11T01:27:03.620Z,987.09
2019-02-11T01:28:21.748Z,987.12
2019-02-11T01:29:45.641Z,987.16
2019-02-11T01:30:45.629Z,987.14
2019-02-11T01:31:45.618Z,987.26
2019-02-11T01:32:45.608Z,987.15
2019-02-11T01:33:45.607Z,987.22
2019-02-11T01:34:45.586Z,987.19
2019-02-11T01:35:45.575Z,987.24
2019-02-11T01:36:45.562Z,987.26
2019-02-11T01:37:45.552Z,987.28
2019-02-11T01:38:45.547Z,987.28
2019-02-11T01:39:45.538Z,987.32
2019-02-11T01:40:45.519Z,987.35
2019-02-11T01:41:45.510Z,987.32
2019-02-11T01:42:45.496Z,987.37
2019-02-11T01:43:45.493Z,987.43
2019-02-11T01:44:45.478Z,987.48
2019-02-11T01:45:45.463Z,987.52
2019-02-11T01:46:45.451Z,987.54
2019-02-11T01:47:45.444Z,987.60
2019-02-11T01:48:45.431Z,987.59
2019-02-11T01:49:45.421Z,987.61
2019-02-11T01:50:45.407Z,987.62
2019-02-11T01:51:45.397Z,987.71
2019-02-11T01:52:45.385Z,987.69
2019-02-11T01:53:45.374Z,987.71
2019-02-11T01:54:45.364Z,987.72
2019-02-11T01:55:45.353Z,987.71
2019-02-11T01:56:45.340Z,987.70
2019-02-11T01:57:45.334Z,987.68
2019-02-11T01:58:45.321Z,987.72
2019-02-11T01:59:45.307Z,987.74
2019-02-11T02:00:45.300Z,987.71
2019-02-11T02:01:45.284Z,987.72
2019-02-11T02:02:45.277Z,987.75
2019-02-11T02:03:45.263Z,987.78
2019-02-11T02:04:45.253Z,987.83
2019-02-11T02:05:45.248Z,987.83
2019-02-11T02:06:45.232Z,987.86
2019-02-11T02:07:45.259Z,987.88
2019-02-11T02:08:45.206Z,987.87
2019-02-11T02:09:45.196Z,987.89
2019-02-11T02:10:45.187Z,987.90
2019-02-11T02:11:45.179Z,987.98
2019-02-11T02:12:45.164Z,987.95
2019-02-11T02:13:45.250Z,987.92
2019-02-11T02:14:45.142Z,987.98
2019-02-11T02:15:45.128Z,988.01
2019-02-11T02:16:45.118Z,987.97
2019-02-11T02:17:45.109Z,988.00
2019-02-11T02:18:45.096Z,987.98
2019-02-11T02:19:45.086Z,988.07
2019-02-11T02:20:45.076Z,988.12
2019-02-11T02:21:45.062Z,988.12
2019-02-11T02:22:45.052Z,988.09
2019-02-11T02:23:45.044Z,988.13
2019-02-11T02:24:45.031Z,988.13
2019-02-11T02:25:45.021Z,988.17
2019-02-11T02:26:45.007Z,988.17
2019-02-11T02:27:45.018Z,988.21
2019-02-11T02:28:44.986Z,988.21
2019-02-11T02:29:44.974Z,988.21
2019-02-11T02:30:44.964Z,988.34
2019-02-11T02:31:44.950Z,988.37
2019-02-11T02:32:44.941Z,988.34
2019-02-11T02:33:44.931Z,988.42
2019-02-11T02:34:44.920Z,988.44
2019-02-11T02:35:44.908Z,988.41
2019-02-11T02:36:44.896Z,988.45
2019-02-11T02:37:44.885Z,988.51
2019-02-11T02:38:44.873Z,988.50
2019-02-11T02:39:44.867Z,988.53
2019-02-11T02:40:44.851Z,988.54
2019-02-11T02:41:44.844Z,988.54
2019-02-11T02:42:44.833Z,988.62
2019-02-11T02:43:54.911Z,988.64
2019-02-11T02:44:45.809Z,988.65
2019-02-11T02:45:44.797Z,988.71
2019-02-11T02:46:44.808Z,988.72
2019-02-11T02:47:44.773Z,988.80
2019-02-11T02:48:44.764Z,988.83
2019-02-11T02:49:44.752Z,988.92
2019-02-11T02:50:44.741Z,988.93
2019-02-11T02:51:44.733Z,988.86
2019-02-11T02:52:44.718Z,988.91
2019-02-11T02:53:44.707Z,988.96
2019-02-11T02:54:44.698Z,988.98
2019-02-11T02:55:44.686Z,989.05
2019-02-11T02:56:44.680Z,989.05
2019-02-11T02:57:44.663Z,989.11
2019-02-11T02:58:44.655Z,989.16
2019-02-11T02:59:44.645Z,989.22
2019-02-11T03:00:44.635Z,989.19
2019-02-11T03:01:44.618Z,989.28
2019-02-11T03:02:44.609Z,989.29
2019-02-11T03:03:44.598Z,989.28
2019-02-11T03:04:44.585Z,989.33
2019-02-11T03:05:44.572Z,989.36
2019-02-11T03:06:44.562Z,989.42
2019-02-11T03:07:44.554Z,989.45
2019-02-11T03:08:44.544Z,989.43
2019-02-11T03:09:44.529Z,989.46
2019-02-11T03:10:44.525Z,989.51
2019-02-11T03:11:44.506Z,989.49
2019-02-11T03:12:44.499Z,989.55
2019-02-11T03:13:44.485Z,989.61
2019-02-11T03:14:44.475Z,989.57
2019-02-11T03:15:44.464Z,989.61
2019-02-11T03:16:44.451Z,989.65
2019-02-11T03:17:44.464Z,989.68
2019-02-11T03:18:44.429Z,989.69
2019-02-11T03:19:44.419Z,989.76
2019-02-11T03:20:44.409Z,989.74
2019-02-11T03:21:44.396Z,989.78
2019-02-11T03:22:44.387Z,989.91
2019-02-11T03:23:44.375Z,989.90
2019-02-11T03:24:44.366Z,990.02
2019-02-11T03:25:44.356Z,990.02
2019-02-11T03:26:44.341Z,990.08
2019-02-11T03:27:44.333Z,990.11
2019-02-11T03:28:44.341Z,990.17
2019-02-11T03:29:44.308Z,990.26
2019-02-11T03:30:44.311Z,990.29
2019-02-11T03:31:44.290Z,990.34
2019-02-11T03:32:44.278Z,990.31
2019-02-11T03:33:44.265Z,990.41
2019-02-11T03:34:44.253Z,990.48
2019-02-11T03:35:44.241Z,990.48
2019-02-11T03:36:44.235Z,990.52
2019-02-11T03:37:44.219Z,990.58
2019-02-11T03:38:44.208Z,990.63
2019-02-11T03:39:44.205Z,990.61
2019-02-11T03:40:44.187Z,990.70
2019-02-11T03:41:44.183Z,990.65
2019-02-11T03:42:44.165Z,990.68
2019-02-11T03:43:44.152Z,990.70
2019-02-11T03:44:44.144Z,990.76
2019-02-11T03:45:44.130Z,990.83
2019-02-11T03:46:44.118Z,990.90
2019-02-11T03:47:44.109Z,990.88
2019-02-11T03:48:44.103Z,990.88
2019-02-11T03:49:44.086Z,990.87
2019-02-11T03:50:44.077Z,990.94
2019-02-11T03:51:44.115Z,990.91
2019-02-11T03:52:44.053Z,990.93
2019-02-11T03:53:44.048Z,991.03
2019-02-11T03:54:44.030Z,991.03
2019-02-11T03:55:44.045Z,991.13
2019-02-11T03:56:44.009Z,991.11
2019-02-11T03:57:43.999Z,991.13
2019-02-11T03:58:43.988Z,991.12
2019-02-11T03:59:43.975Z,991.23
2019-02-11T04:00:43.981Z,991.23
2019-02-11T04:01:44.029Z,991.25
2019-02-11T04:02:43.943Z,991.33
2019-02-11T04:03:43.945Z,991.39
2019-02-11T04:04:43.925Z,991.35
2019-02-11T04:05:43.909Z,991.39
2019-02-11T04:06:43.912Z,991.48
2019-02-11T04:07:43.902Z,991.49
2019-02-11T04:08:43.877Z,991.58
2019-02-11T04:09:43.871Z,991.58
2019-02-11T04:10:43.853Z,991.63
2019-02-11T04:11:43.851Z,991.66
2019-02-11T04:12:43.833Z,991.60
2019-02-11T04:13:43.865Z,991.72
2019-02-11T04:14:43.809Z,991.73
2019-02-11T04:15:43.798Z,991.78
2019-02-11T04:16:43.788Z,991.72
2019-02-11T04:17:43.779Z,991.83
2019-02-11T04:18:43.765Z,991.84
2019-02-11T04:19:43.756Z,991.92
2019-02-11T04:20:43.742Z,991.85
2019-02-11T04:21:43.736Z,991.92
2019-02-11T04:22:43.728Z,991.92
2019-02-11T04:23:43.710Z,991.98
2019-02-11T04:24:43.698Z,991.93
2019-02-11T04:25:43.689Z,991.94
2019-02-11T04:26:43.690Z,992.03
2019-02-11T04:27:43.665Z,991.91
2019-02-11T04:28:43.654Z,992.09
2019-02-11T04:29:43.643Z,992.06
2019-02-11T04:30:43.636Z,992.13
2019-02-11T04:31:43.624Z,992.12
2019-02-11T04:32:43.610Z,992.17
2019-02-11T04:33:43.599Z,992.15
2019-02-11T04:34:43.589Z,992.23
2019-02-11T04:35:43.577Z,992.28
2019-02-11T04:36:43.569Z,992.34
2019-02-11T04:37:43.557Z,992.38
2019-02-11T04:38:43.547Z,992.37
2019-02-11T04:39:43.532Z,992.34
2019-02-11T04:40:43.523Z,992.37
2019-02-11T04:41:43.511Z,992.38
2019-02-11T04:42:43.501Z,992.47
2019-02-11T04:43:43.495Z,992.51
2019-02-11T04:44:43.483Z,992.53
2019-02-11T04:45:43.466Z,992.55
2019-02-11T04:46:43.459Z,992.58
2019-02-11T04:47:43.445Z,992.56
2019-02-11T04:48:43.433Z,992.62
2019-02-11T04:49:43.422Z,992.67
2019-02-11T04:50:43.411Z,992.63
2019-02-11T04:51:43.400Z,992.68
2019-02-11T04:52:43.388Z,992.71
2019-02-11T04:53:43.378Z,992.72
2019-02-11T04:54:43.371Z,992.76
2019-02-11T04:55:43.359Z,992.82
2019-02-11T04:56:43.348Z,992.82
2019-02-11T04:57:43.343Z,992.79
2019-02-11T04:58:43.322Z,992.90
2019-02-11T04:59:43.310Z,992.92
2019-02-11T05:00:43.299Z,992.88
2019-02-11T05:01:43.295Z,992.95
2019-02-11T05:02:43.278Z,992.91
2019-02-11T05:03:43.268Z,993.02
2019-02-11T05:04:43.257Z,992.91
2019-02-11T05:05:43.244Z,992.99
2019-02-11T05:06:43.236Z,993.07
2019-02-11T05:07:43.227Z,993.04
2019-02-11T05:08:43.211Z,993.05
2019-02-11T05:09:43.200Z,993.03
2019-02-11T05:10:43.189Z,993.12
2019-02-11T05:11:43.181Z,993.13
2019-02-11T05:12:43.170Z,993.28
2019-02-11T05:13:43.156Z,993.21
2019-02-11T05:14:44.213Z,993.22
2019-02-11T05:15:43.133Z,993.26
2019-02-11T05:16:43.122Z,993.20
2019-02-11T05:17:43.111Z,993.27
2019-02-11T05:18:43.100Z,993.29
2019-02-11T05:19:43.089Z,993.23
2019-02-11T05:20:43.107Z,993.35
2019-02-11T05:21:43.067Z,993.37
2019-02-11T05:22:43.095Z,993.34
2019-02-11T05:23:43.054Z,993.39
2019-02-11T05:24:43.047Z,993.40
2019-02-11T05:25:43.022Z,993.49
2019-02-11T05:26:43.014Z,993.44
2019-02-11T05:27:43.002Z,993.54
2019-02-11T05:28:42.989Z,993.46
2019-02-11T05:29:42.979Z,993.63
2019-02-11T05:30:42.967Z,993.58
2019-02-11T05:31:42.955Z,993.68
2019-02-11T05:32:42.945Z,993.61
2019-02-11T05:33:42.936Z,993.66
2019-02-11T05:34:42.926Z,993.63
2019-02-11T05:35:42.911Z,993.77
2019-02-11T05:36:42.900Z,993.80
2019-02-11T05:37:44.230Z,993.81
2019-02-11T05:38:42.879Z,993.76
2019-02-11T05:39:42.873Z,993.88
2019-02-11T05:40:42.855Z,993.84
2019-02-11T05:41:42.844Z,993.82
2019-02-11T05:42:42.835Z,993.77
2019-02-11T05:43:42.823Z,993.91
2019-02-11T05:44:42.811Z,993.96
2019-02-11T05:45:42.799Z,993.94
2019-02-11T05:46:42.789Z,993.95
2019-02-11T05:47:42.778Z,993.99
2019-02-11T05:48:42.771Z,994.00
2019-02-11T05:49:42.757Z,994.04
2019-02-11T05:50:42.746Z,994.09
2019-02-11T05:51:42.737Z,994.06
2019-02-11T05:52:42.724Z,994.13
2019-02-11T05:53:42.712Z,994.09
2019-02-11T05:54:42.700Z,994.12
2019-02-11T05:55:42.689Z,994.08
2019-02-11T05:56:42.683Z,994.18
2019-02-11T05:57:42.667Z,994.11
2019-02-11T05:58:42.658Z,994.14
2019-02-11T05:59:42.645Z,994.19
2019-02-11T06:00:42.633Z,994.22
2019-02-11T06:01:42.621Z,994.28
2019-02-11T06:02:42.617Z,994.26
2019-02-11T06:03:42.600Z,994.34
2019-02-11T06:04:42.588Z,994.40
2019-02-11T06:05:42.589Z,994.40
2019-02-11T06:06:42.566Z,994.38
2019-02-11T06:07:42.562Z,994.41
2019-02-11T06:08:42.549Z,994.55
2019-02-11T06:09:42.532Z,994.50
2019-02-11T06:10:42.521Z,994.59
2019-02-11T06:11:42.512Z,994.50
2019-02-11T06:12:42.502Z,994.46
2019-02-11T06:13:42.489Z,994.54
2019-02-11T06:14:42.477Z,994.63
2019-02-11T06:15:42.483Z,994.67
2019-02-11T06:16:42.465Z,994.67
2019-02-11T06:17:42.453Z,994.63
2019-02-11T06:18:42.432Z,994.72
2019-02-11T06:19:42.424Z,994.71
2019-02-11T06:20:42.413Z,994.68
2019-02-11T06:21:42.402Z,994.76
2019-02-11T06:22:42.390Z,994.78
2019-02-11T06:23:42.379Z,994.78
2019-02-11T06:24:42.390Z,994.82
2019-02-11T06:25:42.355Z,994.83
2019-02-11T06:26:42.345Z,994.90
2019-02-11T06:27:42.334Z,994.99
2019-02-11T06:28:42.321Z,995.02
2019-02-11T06:29:42.314Z,995.06
2019-02-11T06:30:42.300Z,995.06
2019-02-11T06:31:42.291Z,995.08
2019-02-11T06:32:42.353Z,995.12
2019-02-11T06:33:42.268Z,995.15
2019-02-11T06:34:42.257Z,995.17
2019-02-11T06:35:42.246Z,995.15
2019-02-11T06:36:42.241Z,995.18
2019-02-11T06:37:42.226Z,995.20
2019-02-11T06:38:42.211Z,995.26
2019-02-11T06:39:42.200Z,995.22
2019-02-11T06:40:42.191Z,995.20
2019-02-11T06:41:42.183Z,995.29
2019-02-11T06:42:42.168Z,995.31
2019-02-11T06:43:42.155Z,995.34
2019-02-11T06:44:42.145Z,995.35
2019-02-11T06:45:42.134Z,995.38
2019-02-11T06:46:42.122Z,995.44
2019-02-11T06:47:42.119Z,995.40
2019-02-11T06:48:42.112Z,995.48
2019-02-11T06:49:42.104Z,995.50
2019-02-11T06:50:42.080Z,995.46
2019-02-11T06:51:42.066Z,995.53
2019-02-11T06:52:42.058Z,995.54
2019-02-11T06:53:42.058Z,995.60
2019-02-11T06:54:42.033Z,995.60
2019-02-11T06:55:42.022Z,995.66
2019-02-11T06:56:42.014Z,995.64
2019-02-11T06:57:42.003Z,995.66
2019-02-11T06:58:41.989Z,995.70
2019-02-11T06:59:41.979Z,995.73
2019-02-11T07:00:41.968Z,995.72
2019-02-11T07:01:41.955Z,995.78
2019-02-11T07:02:41.978Z,995.86
2019-02-11T07:03:41.935Z,995.89
2019-02-11T07:04:41.925Z,995.78
2019-02-11T07:05:41.963Z,995.81
2019-02-11T07:06:41.900Z,995.86
2019-02-11T07:07:41.890Z,995.91
2019-02-11T07:08:41.881Z,995.90
2019-02-11T07:09:41.872Z,996.00
2019-02-11T07:10:41.855Z,996.01
2019-02-11T07:11:41.854Z,995.98
2019-02-11T07:12:41.835Z,996.02
2019-02-11T07:13:41.821Z,996.05
2019-02-11T07:14:41.812Z,996.01
2019-02-11T07:15:41.803Z,996.05
2019-02-11T07:16:41.790Z,996.11
2019-02-11T07:17:41.779Z,996.05
2019-02-11T07:18:41.768Z,996.13
2019-02-11T07:19:41.757Z,996.12
2019-02-11T07:20:41.747Z,996.21
2019-02-11T07:21:41.737Z,996.20
2019-02-11T07:22:41.723Z,996.21
2019-02-11T07:23:41.711Z,996.24
2019-02-11T07:24:41.701Z,996.33
2019-02-11T07:25:41.689Z,996.30
2019-02-11T07:26:41.678Z,996.35
2019-02-11T07:27:41.667Z,996.27
2019-02-11T07:28:41.659Z,996.40
2019-02-11T07:29:41.644Z,996.31
2019-02-11T07:30:41.633Z,996.30
2019-02-11T07:31:41.624Z,996.30
2019-02-11T07:32:41.616Z,996.35
2019-02-11T07:33:41.600Z,996.40
2019-02-11T07:34:41.604Z,996.35
2019-02-11T07:35:41.578Z,996.45
2019-02-11T07:36:41.567Z,996.45
2019-02-11T07:37:41.561Z,996.45
2019-02-11T07:38:41.556Z,996.46
2019-02-11T07:39:41.534Z,996.50
2019-02-11T07:40:41.529Z,996.56
2019-02-11T07:41:41.511Z,996.52
2019-02-11T07:42:41.499Z,996.56
2019-02-11T07:44:02.135Z,996.54
2019-02-11T07:45:29.917Z,996.72
2019-02-11T07:46:43.167Z,996.77
2019-02-11T07:48:05.555Z,996.78
2019-02-11T07:49:25.184Z,996.79
2019-02-11T07:50:47.608Z,996.81
2019-02-11T07:52:07.194Z,996.85
2019-02-11T07:53:29.605Z,996.89
2019-02-11T07:58:55.438Z,997.00
2019-02-11T07:59:57.232Z,997.00
2019-02-11T08:00:55.417Z,997.11
2019-02-11T08:01:55.412Z,997.09
2019-02-11T08:02:55.393Z,997.15
2019-02-11T08:03:55.384Z,997.11
2019-02-11T08:04:55.372Z,997.23
2019-02-11T08:05:55.364Z,997.22
2019-02-11T08:06:55.350Z,997.25
2019-02-11T08:07:55.339Z,997.26
2019-02-11T08:08:55.328Z,997.23
2019-02-11T08:09:55.319Z,997.21
2019-02-11T08:10:55.310Z,997.27
2019-02-11T08:11:55.295Z,997.27
2019-02-11T08:12:55.292Z,997.28
2019-02-11T08:13:55.273Z,997.31
2019-02-11T08:14:55.260Z,997.23
2019-02-11T08:15:55.251Z,997.35
2019-02-11T08:16:55.242Z,997.34
2019-02-11T08:17:55.227Z,997.33
2019-02-11T08:18:55.217Z,997.36
2019-02-11T08:19:55.766Z,997.39
2019-02-11T08:20:55.224Z,997.29
2019-02-11T08:21:55.186Z,997.42
2019-02-11T08:22:55.175Z,997.36
2019-02-11T08:23:55.164Z,997.39
2019-02-11T08:24:55.151Z,997.52
2019-02-11T08:25:55.139Z,997.45
2019-02-11T08:26:55.129Z,997.51
2019-02-11T08:27:55.117Z,997.45
2019-02-11T08:28:55.107Z,997.50
2019-02-11T08:29:55.094Z,997.55
2019-02-11T08:30:55.083Z,997.54
2019-02-11T08:31:55.073Z,997.49
2019-02-11T08:32:55.064Z,997.62
2019-02-11T08:33:55.050Z,997.57
2019-02-11T08:34:55.039Z,997.60
2019-02-11T08:35:55.029Z,997.60
2019-02-11T08:36:55.017Z,997.69
2019-02-11T08:37:55.004Z,997.72
2019-02-11T08:38:54.999Z,997.73
2019-02-11T08:39:54.987Z,997.70
2019-02-11T08:40:54.972Z,997.75
2019-02-11T08:41:54.961Z,997.76
2019-02-11T08:42:54.949Z,997.77
2019-02-11T08:43:54.938Z,997.80
2019-02-11T08:44:54.942Z,997.91
2019-02-11T08:45:54.916Z,997.88
2019-02-11T08:46:54.904Z,997.90
2019-02-11T08:47:54.896Z,997.91
2019-02-11T08:48:54.882Z,997.89
2019-02-11T08:49:54.873Z,997.96
2019-02-11T08:50:54.864Z,997.97
2019-02-11T08:51:54.849Z,998.03
2019-02-11T08:52:54.837Z,998.01
2019-02-11T08:53:54.828Z,998.15
2019-02-11T08:54:54.818Z,998.19
2019-02-11T08:55:54.808Z,998.24
2019-02-11T08:56:54.793Z,998.26
2019-02-11T08:57:54.781Z,998.24
2019-02-11T08:58:54.773Z,998.29
2019-02-11T08:59:54.758Z,998.34
2019-02-11T09:00:54.747Z,998.33
2019-02-11T09:01:54.738Z,998.47
2019-02-11T09:02:54.726Z,998.41
2019-02-11T09:03:54.717Z,998.42
2019-02-11T09:04:54.703Z,998.47
2019-02-11T09:05:54.692Z,998.53
2019-02-11T09:06:54.693Z,998.55
2019-02-11T09:07:54.672Z,998.65
2019-02-11T09:08:54.661Z,998.58
2019-02-11T09:09:54.697Z,998.59
2019-02-11T09:10:54.637Z,998.66
2019-02-11T09:11:54.629Z,998.70
2019-02-11T09:12:54.614Z,998.64
2019-02-11T09:13:54.604Z,998.68
2019-02-11T09:14:54.592Z,998.70
2019-02-11T09:15:55.468Z,998.72
2019-02-11T09:16:54.573Z,998.73
2019-02-11T09:17:54.570Z,998.65
2019-02-11T09:18:54.569Z,998.80
2019-02-11T09:19:54.547Z,998.82
2019-02-11T09:20:54.527Z,998.86
2019-02-11T09:21:54.521Z,998.85
2019-02-11T09:22:54.507Z,998.83
2019-02-11T09:23:54.494Z,998.93
2019-02-11T09:24:54.482Z,998.88
2019-02-11T09:25:54.468Z,999.01
2019-02-11T09:26:54.456Z,998.95
2019-02-11T09:27:54.445Z,999.03
2019-02-11T09:28:54.435Z,999.04
2019-02-11T09:29:54.434Z,999.07
2019-02-11T09:30:54.413Z,999.01
2019-02-11T09:31:54.405Z,999.01
2019-02-11T09:32:54.393Z,999.03
2019-02-11T09:33:54.385Z,999.12
2019-02-11T09:34:54.373Z,999.17
2019-02-11T09:35:54.358Z,999.30
2019-02-11T09:36:54.346Z,999.29
2019-02-11T09:37:54.334Z,999.28
2019-02-11T09:38:54.322Z,999.23
2019-02-11T09:39:54.311Z,999.26
2019-02-11T09:40:54.302Z,999.26
2019-02-11T09:41:54.289Z,999.36
2019-02-11T09:42:54.280Z,999.33
2019-02-11T09:43:54.278Z,999.34
2019-02-11T09:44:54.256Z,999.30
2019-02-11T09:45:54.247Z,999.34
2019-02-11T09:46:54.234Z,999.34
2019-02-11T09:47:54.223Z,999.31
2019-02-11T09:48:54.211Z,999.37
2019-02-11T09:49:54.200Z,999.44
2019-02-11T09:50:54.189Z,999.40
2019-02-11T09:51:54.177Z,999.47
2019-02-11T09:52:54.166Z,999.42
2019-02-11T09:53:54.155Z,999.40
2019-02-11T09:54:54.146Z,999.51
2019-02-11T09:55:54.132Z,999.52
2019-02-11T09:56:54.122Z,999.56
2019-02-11T09:57:54.114Z,999.52
2019-02-11T09:58:54.099Z,999.61
2019-02-11T09:59:54.089Z,999.50
2019-02-11T10:00:54.079Z,999.65
2019-02-11T10:01:54.071Z,999.60
2019-02-11T10:02:54.054Z,999.68
2019-02-11T10:03:54.043Z,999.58
2019-02-11T10:04:54.031Z,999.59
2019-02-11T10:05:54.020Z,999.57
2019-02-11T10:06:54.010Z,999.74
2019-02-11T10:07:54.000Z,999.71
2019-02-11T10:08:53.987Z,999.78
2019-02-11T10:09:53.976Z,999.69
2019-02-11T10:10:53.965Z,999.68
2019-02-11T10:11:53.953Z,999.70
2019-02-11T10:12:53.942Z,999.79
2019-02-11T10:13:53.935Z,999.69
2019-02-11T10:14:53.923Z,999.84
2019-02-11T10:15:53.941Z,999.82
2019-02-11T10:16:53.898Z,999.80
2019-02-11T10:17:53.887Z,999.80
2019-02-11T10:18:53.875Z,999.78
2019-02-11T10:19:53.876Z,999.85
2019-02-11T10:20:53.856Z,999.91
2019-02-11T10:21:53.843Z,999.90
2019-02-11T10:22:53.836Z,999.89
2019-02-11T10:23:53.820Z,999.91
2019-02-11T10:24:53.809Z,1000.04
2019-02-11T10:25:53.801Z,1000.08
2019-02-11T10:26:53.786Z,1000.01
2019-02-11T10:27:53.775Z,1000.09
2019-02-11T10:28:53.765Z,1000.07
2019-02-11T10:29:53.753Z,1000.01
2019-02-11T10:30:53.749Z,1000.16
2019-02-11T10:31:53.729Z,1000.13
2019-02-11T10:32:53.723Z,1000.11
2019-02-11T10:33:53.708Z,1000.21
2019-02-11T10:34:53.697Z,1000.23
2019-02-11T10:35:53.685Z,1000.14
2019-02-11T10:36:53.678Z,1000.27
2019-02-11T10:37:53.664Z,1000.25
2019-02-11T10:38:53.651Z,1000.21
2019-02-11T10:39:53.641Z,1000.20
2019-02-11T10:40:53.630Z,1000.16
2019-02-11T10:41:53.635Z,1000.18
2019-02-11T10:42:53.616Z,1000.15
2019-02-11T10:43:53.596Z,1000.22
2019-02-11T10:44:53.585Z,1000.24
2019-02-11T10:45:53.574Z,1000.25
2019-02-11T10:46:53.563Z,1000.27
2019-02-11T10:47:53.552Z,1000.30
2019-02-11T10:48:53.542Z,1000.43
2019-02-11T10:49:53.530Z,1000.32
2019-02-11T10:50:53.518Z,1000.34
2019-02-11T10:51:53.507Z,1000.36
2019-02-11T10:52:53.499Z,1000.40
2019-02-11T10:53:53.489Z,1000.51
2019-02-11T10:54:53.474Z,1000.47
2019-02-11T10:55:53.462Z,1000.46
2019-02-11T10:56:53.452Z,1000.48
2019-02-11T10:57:53.442Z,1000.48
2019-02-11T10:58:53.428Z,1000.46
2019-02-11T10:59:53.418Z,1000.45
2019-02-11T11:00:53.405Z,1000.46
2019-02-11T11:01:53.395Z,1000.54
2019-02-11T11:02:53.383Z,1000.56
2019-02-11T11:03:53.374Z,1000.57
2019-02-11T11:04:53.362Z,1000.58
2019-02-11T11:05:53.351Z,1000.62
2019-02-11T11:06:53.338Z,1000.62
2019-02-11T11:07:53.328Z,1000.62
2019-02-11T11:08:53.318Z,1000.60
2019-02-11T11:09:53.310Z,1000.67
2019-02-11T11:10:53.299Z,1000.69
2019-02-11T11:11:53.282Z,1000.70
2019-02-11T11:12:53.272Z,1000.69
2019-02-11T11:13:53.261Z,1000.70
2019-02-11T11:14:53.250Z,1000.81
2019-02-11T11:15:53.239Z,1000.85
2019-02-11T11:16:53.228Z,1000.85
2019-02-11T11:17:53.219Z,1000.82
2019-02-11T11:18:53.212Z,1000.95
2019-02-11T11:19:53.194Z,1000.90
2019-02-11T11:20:53.192Z,1001.04
2019-02-11T11:21:53.177Z,1000.91
2019-02-11T11:22:53.160Z,1000.90
2019-02-11T11:23:53.160Z,1000.90
2019-02-11T11:24:53.137Z,1001.03
2019-02-11T11:25:53.127Z,1001.00
2019-02-11T11:26:53.116Z,1001.04
2019-02-11T11:27:53.105Z,1001.03
2019-02-11T11:28:53.104Z,1001.05
2019-02-11T11:29:53.081Z,1001.01
2019-02-11T11:30:53.071Z,1001.01
2019-02-11T11:31:53.058Z,1001.03
2019-02-11T11:32:53.053Z,1001.02
2019-02-11T11:33:53.040Z,1001.04
2019-02-11T11:34:53.027Z,1001.10
2019-02-11T11:35:53.015Z,1001.01
2019-02-11T11:36:53.006Z,1001.09
2019-02-11T11:37:53.003Z,1001.11
2019-02-11T11:38:52.981Z,1001.15
2019-02-11T11:39:52.969Z,1001.14
2019-02-11T11:40:52.957Z,1001.13
2019-02-11T11:41:52.946Z,1001.17
2019-02-11T11:42:52.937Z,1001.16
2019-02-11T11:43:52.925Z,1001.18
2019-02-11T11:44:52.914Z,1001.18
2019-02-11T11:45:52.902Z,1001.25
2019-02-11T11:46:52.892Z,1001.18
2019-02-11T11:47:52.878Z,1001.22
2019-02-11T11:48:52.872Z,1001.22
2019-02-11T11:49:52.863Z,1001.28
2019-02-11T11:50:52.845Z,1001.27
2019-02-11T11:51:52.838Z,1001.31
2019-02-11T11:52:52.823Z,1001.24
2019-02-11T11:53:52.813Z,1001.27
2019-02-11T11:54:52.811Z,1001.28
2019-02-11T11:55:52.805Z,1001.33
2019-02-11T11:56:52.781Z,1001.37
2019-02-11T11:57:52.776Z,1001.36
2019-02-11T11:58:52.762Z,1001.45
2019-02-11T11:59:52.789Z,1001.46
2019-02-11T12:00:52.745Z,1001.46
2019-02-11T12:01:52.726Z,1001.50
2019-02-11T12:03:01.804Z,1001.43
2019-02-11T12:03:53.709Z,1001.52
2019-02-11T12:04:52.710Z,1001.49
2019-02-11T12:05:52.696Z,1001.51
2019-02-11T12:06:52.667Z,1001.57
2019-02-11T12:07:52.705Z,1001.59
2019-02-11T12:08:52.653Z,1001.60
2019-02-11T12:09:52.633Z,1001.61
2019-02-11T12:10:52.634Z,1001.62
2019-02-11T12:11:52.625Z,1001.61
2019-02-11T12:12:52.618Z,1001.72
2019-02-11T12:13:52.588Z,1001.69
2019-02-11T12:14:52.581Z,1001.80
2019-02-11T12:15:52.581Z,1001.83
2019-02-11T12:16:56.988Z,1001.87
2019-02-11T12:17:53.570Z,1001.76
2019-02-11T12:18:52.532Z,1001.88
2019-02-11T12:19:52.532Z,1001.84
2019-02-11T12:20:52.514Z,1001.90
2019-02-11T12:21:52.502Z,1001.90
2019-02-11T12:22:52.515Z,1001.91
2019-02-11T12:23:52.484Z,1001.92
2019-02-11T12:24:52.470Z,1001.91
2019-02-11T12:25:52.474Z,1001.95
2019-02-11T12:26:52.443Z,1001.91
2019-02-11T12:27:52.436Z,1001.98
2019-02-11T12:28:52.434Z,1002.00
2019-02-11T12:29:52.411Z,1001.95
2019-02-11T12:30:53.842Z,1001.92
2019-02-11T12:31:52.393Z,1002.07